sensor_id;sensor_type;location;lat;lon;timestamp;pressure;altitude;pressure_sealevel;temperature
66027;BMP280;56312;55.976;37.136;2022-07-29T00:02:39;57634.44;;;-135.08
66027;BMP280;56312;55.976;37.136;2022-07-29T00:07:45;57634.44;;;-135.08
66027;BMP280;56312;55.976;37.136;2022-07-29T00:12:52;57634.44;;;-135.08
66027;BMP280;56312;55.976;37.136;2022-07-29T00:17:58;57634.44;;;-135.08
66027;BMP280;56312;55.976;37.136;2022-07-29T00:23:05;57634.44;;;-135.08
66027;BMP280;56312;55.976;37.136;2022-07-29T00:28:11;57634.44;;;-135.08
66027;BMP280;56312;55.976;37.136;2022-07-29T00:33:18;57634.44;;;-135.08
66027;BMP280;56312;55.976;37.136;2022-07-29T00:38:24;57634.44;;;-135.08
66027;BMP280;56312;55.976;37.136;2022-07-29T00:43:30;57634.44;;;-135.08
66027;BMP280;56312;55.976;37.136;2022-07-29T00:48:37;57634.44;;;-135.08
66027;BMP280;56312;55.976;37.136;2022-07-29T00:53:44;57634.44;;;-135.08
66027;BMP280;56312;55.976;37.136;2022-07-29T00:58:52;57634.44;;;-135.08
66027;BMP280;56312;55.976;37.136;2022-07-29T01:04:01;57634.44;;;-135.08
66027;BMP280;56312;55.976;37.136;2022-07-29T01:09:08;57634.44;;;-135.08
66027;BMP280;56312;55.976;37.136;2022-07-29T01:14:15;57634.44;;;-135.08
66027;BMP280;56312;55.976;37.136;2022-07-29T01:30:05;57634.44;;;-135.08
66027;BMP280;56312;55.976;37.136;2022-07-29T01:35:22;57634.44;;;-135.08
66027;BMP280;56312;55.976;37.136;2022-07-29T01:40:41;98928.13;;;22.11
66027;BMP280;56312;55.976;37.136;2022-07-29T01:45:52;98931.72;;;22.10
66027;BMP280;56312;55.976;37.136;2022-07-29T01:51:12;98935.28;;;22.09
66027;BMP280;56312;55.976;37.136;2022-07-29T01:56:23;98931.28;;;22.05
66027;BMP280;56312;55.976;37.136;2022-07-29T02:01:31;98934.09;;;22.02
66027;BMP280;56312;55.976;37.136;2022-07-29T02:06:39;98936.03;;;22.00
66027;BMP280;56312;55.976;37.136;2022-07-29T02:11:50;98937.66;;;22.01
66027;BMP280;56312;55.976;37.136;2022-07-29T02:16:59;98930.53;;;22.03
66027;BMP280;56312;55.976;37.136;2022-07-29T02:22:07;98928.66;;;22.05
66027;BMP280;56312;55.976;37.136;2022-07-29T02:27:15;98925.91;;;22.06
66027;BMP280;56312;55.976;37.136;2022-07-29T02:32:24;98938.88;;;22.08
66027;BMP280;56312;55.976;37.136;2022-07-29T02:37:33;98946.81;;;22.06
66027;BMP280;56312;55.976;37.136;2022-07-29T02:42:41;98938.28;;;22.04
66027;BMP280;56312;55.976;37.136;2022-07-29T02:47:50;98938.38;;;22.03
66027;BMP280;56312;55.976;37.136;2022-07-29T02:52:57;98930.53;;;22.03
66027;BMP280;56312;55.976;37.136;2022-07-29T03:03:37;98930.06;;;22.09
66027;BMP280;56312;55.976;37.136;2022-07-29T03:08:44;98934.06;;;22.13
66027;BMP280;56312;55.976;37.136;2022-07-29T03:13:52;98943.56;;;22.14
66027;BMP280;56312;55.976;37.136;2022-07-29T03:18:59;98928.13;;;22.11
66027;BMP280;56312;55.976;37.136;2022-07-29T03:24:07;98931.72;;;22.10
66027;BMP280;56312;55.976;37.136;2022-07-29T03:29:13;98930.06;;;22.09
66027;BMP280;56312;55.976;37.136;2022-07-29T03:34:20;98935.28;;;22.09
66027;BMP280;56312;55.976;37.136;2022-07-29T03:39:27;98935.03;;;22.12
66027;BMP280;56312;55.976;37.136;2022-07-29T03:44:37;98937.38;;;22.15
66027;BMP280;56312;55.976;37.136;2022-07-29T03:49:46;98930.94;;;22.19
66027;BMP280;56312;55.976;37.136;2022-07-29T03:54:55;98943.91;;;22.20
66027;BMP280;56312;55.976;37.136;2022-07-29T04:00:03;98927.50;;;22.18
66027;BMP280;56312;55.976;37.136;2022-07-29T04:05:11;98936.44;;;22.16
66027;BMP280;56312;55.976;37.136;2022-07-29T04:10:19;98940.81;;;22.15
66027;BMP280;56312;55.976;37.136;2022-07-29T04:15:25;98950.47;;;22.15
66027;BMP280;56312;55.976;37.136;2022-07-29T04:20:34;98950.47;;;22.15
66027;BMP280;56312;55.976;37.136;2022-07-29T04:25:40;98951.03;;;22.18
66027;BMP280;56312;55.976;37.136;2022-07-29T04:30:48;98949.97;;;22.20
66027;BMP280;56312;55.976;37.136;2022-07-29T04:35:54;98949.81;;;22.22
66027;BMP280;56312;55.976;37.136;2022-07-29T04:41:00;98951.63;;;22.21
66027;BMP280;56312;55.976;37.136;2022-07-29T04:46:15;98949.97;;;22.20
66027;BMP280;56312;55.976;37.136;2022-07-29T04:51:22;98950.22;;;22.18
66027;BMP280;56312;55.976;37.136;2022-07-29T04:56:28;98946.91;;;22.16
66027;BMP280;56312;55.976;37.136;2022-07-29T05:01:35;98946.06;;;22.15
66027;BMP280;56312;55.976;37.136;2022-07-29T05:06:41;98945.81;;;22.18
66027;BMP280;56312;55.976;37.136;2022-07-29T05:11:47;98954.22;;;22.21
66027;BMP280;56312;55.976;37.136;2022-07-29T05:16:54;98944.50;;;22.23
66027;BMP280;56312;55.976;37.136;2022-07-29T05:22:02;98948.75;;;22.24
66027;BMP280;56312;55.976;37.136;2022-07-29T05:27:08;98939.25;;;22.23
66027;BMP280;56312;55.976;37.136;2022-07-29T05:32:15;98941.16;;;22.21
66027;BMP280;56312;55.976;37.136;2022-07-29T05:37:21;98948.31;;;22.20
66027;BMP280;56312;55.976;37.136;2022-07-29T05:42:28;57634.44;;;-135.08
66027;BMP280;56312;55.976;37.136;2022-07-29T05:47:34;57634.44;;;-135.08
66027;BMP280;56312;55.976;37.136;2022-07-29T05:52:41;57634.44;;;-135.08
66027;BMP280;56312;55.976;37.136;2022-07-29T05:57:47;57634.44;;;-135.08
66027;BMP280;56312;55.976;37.136;2022-07-29T06:02:54;57634.44;;;-135.08
66027;BMP280;56312;55.976;37.136;2022-07-29T06:08:00;57634.44;;;-135.08
66027;BMP280;56312;55.976;37.136;2022-07-29T06:13:07;57634.44;;;-135.08
66027;BMP280;56312;55.976;37.136;2022-07-29T06:18:13;57634.44;;;-135.08
66027;BMP280;56312;55.976;37.136;2022-07-29T06:23:20;57634.44;;;-135.08
66027;BMP280;56312;55.976;37.136;2022-07-29T06:28:26;57634.44;;;-135.08
66027;BMP280;56312;55.976;37.136;2022-07-29T06:33:33;57634.44;;;-135.08
66027;BMP280;56312;55.976;37.136;2022-07-29T06:38:40;57634.44;;;-135.08
66027;BMP280;56312;55.976;37.136;2022-07-29T06:43:46;57634.44;;;-135.08
66027;BMP280;56312;55.976;37.136;2022-07-29T06:48:52;57634.44;;;-135.08
66027;BMP280;56312;55.976;37.136;2022-07-29T06:53:59;57634.44;;;-135.08
66027;BMP280;56312;55.976;37.136;2022-07-29T06:59:07;57634.44;;;-135.08
66027;BMP280;56312;55.976;37.136;2022-07-29T07:04:14;57634.44;;;-135.08
66027;BMP280;56312;55.976;37.136;2022-07-29T07:09:21;57634.44;;;-135.08
66027;BMP280;56312;55.976;37.136;2022-07-29T07:14:27;57634.44;;;-135.08
66027;BMP280;56312;55.976;37.136;2022-07-29T07:19:33;57634.44;;;-135.08
66027;BMP280;56312;55.976;37.136;2022-07-29T07:24:40;57634.44;;;-135.08
66027;BMP280;56312;55.976;37.136;2022-07-29T07:29:46;57634.44;;;-135.08
66027;BMP280;56312;55.976;37.136;2022-07-29T07:34:52;57634.44;;;-135.08
66027;BMP280;56312;55.976;37.136;2022-07-29T07:39:59;57634.44;;;-135.08
66027;BMP280;56312;55.976;37.136;2022-07-29T07:45:06;57634.44;;;-135.08
66027;BMP280;56312;55.976;37.136;2022-07-29T07:50:14;57634.44;;;-135.08
66027;BMP280;56312;55.976;37.136;2022-07-29T07:55:23;57634.44;;;-135.08
66027;BMP280;56312;55.976;37.136;2022-07-29T08:00:30;57634.44;;;-135.08
66027;BMP280;56312;55.976;37.136;2022-07-29T08:05:37;57634.44;;;-135.08
66027;BMP280;56312;55.976;37.136;2022-07-29T08:10:44;57634.44;;;-135.08
66027;BMP280;56312;55.976;37.136;2022-07-29T08:16:01;57634.44;;;-135.08
66027;BMP280;56312;55.976;37.136;2022-07-29T08:21:07;57634.44;;;-135.08
66027;BMP280;56312;55.976;37.136;2022-07-29T08:26:13;57634.44;;;-135.08
66027;BMP280;56312;55.976;37.136;2022-07-29T08:31:20;57634.44;;;-135.08
66027;BMP280;56312;55.976;37.136;2022-07-29T08:36:26;57634.44;;;-135.08
66027;BMP280;56312;55.976;37.136;2022-07-29T08:41:33;57634.44;;;-135.08
66027;BMP280;56312;55.976;37.136;2022-07-29T08:46:39;57634.44;;;-135.08
66027;BMP280;56312;55.976;37.136;2022-07-29T08:51:46;57634.44;;;-135.08
66027;BMP280;56312;55.976;37.136;2022-07-29T08:56:52;57634.44;;;-135.08
66027;BMP280;56312;55.976;37.136;2022-07-29T09:02:06;57634.44;;;-135.08
66027;BMP280;56312;55.976;37.136;2022-07-29T09:07:21;57634.44;;;-135.08
66027;BMP280;56312;55.976;37.136;2022-07-29T09:12:28;57634.44;;;-135.08
66027;BMP280;56312;55.976;37.136;2022-07-29T09:17:39;57634.44;;;-135.08
66027;BMP280;56312;55.976;37.136;2022-07-29T09:22:50;57634.44;;;-135.08
66027;BMP280;56312;55.976;37.136;2022-07-29T09:28:07;57634.44;;;-135.08
66027;BMP280;56312;55.976;37.136;2022-07-29T09:33:17;57634.44;;;-135.08
66027;BMP280;56312;55.976;37.136;2022-07-29T09:38:24;57634.44;;;-135.08
66027;BMP280;56312;55.976;37.136;2022-07-29T09:43:31;57634.44;;;-135.08
66027;BMP280;56312;55.976;37.136;2022-07-29T09:48:37;57634.44;;;-135.08
66027;BMP280;56312;55.976;37.136;2022-07-29T09:53:44;57634.44;;;-135.08
66027;BMP280;56312;55.976;37.136;2022-07-29T09:59:04;57634.44;;;-135.08
66027;BMP280;56312;55.976;37.136;2022-07-29T10:04:12;57634.44;;;-135.08
66027;BMP280;56312;55.976;37.136;2022-07-29T10:09:18;57634.44;;;-135.08
66027;BMP280;56312;55.976;37.136;2022-07-29T10:14:24;57634.44;;;-135.08
66027;BMP280;56312;55.976;37.136;2022-07-29T10:19:31;57634.44;;;-135.08
66027;BMP280;56312;55.976;37.136;2022-07-29T10:24:38;57634.44;;;-135.08
66027;BMP280;56312;55.976;37.136;2022-07-29T10:29:45;57634.44;;;-135.08
66027;BMP280;56312;55.976;37.136;2022-07-29T10:34:57;57634.44;;;-135.08
66027;BMP280;56312;55.976;37.136;2022-07-29T10:40:18;57634.44;;;-135.08
66027;BMP280;56312;55.976;37.136;2022-07-29T10:45:55;57634.44;;;-135.08
66027;BMP280;56312;55.976;37.136;2022-07-29T10:51:04;57634.44;;;-135.08
66027;BMP280;56312;55.976;37.136;2022-07-29T10:56:26;57634.44;;;-135.08
66027;BMP280;56312;55.976;37.136;2022-07-29T11:01:52;57634.44;;;-135.08
66027;BMP280;56312;55.976;37.136;2022-07-29T11:28:25;57634.44;;;-135.08
66027;BMP280;56312;55.976;37.136;2022-07-29T11:33:32;57634.44;;;-135.08
66027;BMP280;56312;55.976;37.136;2022-07-29T11:38:45;57634.44;;;-135.08
66027;BMP280;56312;55.976;37.136;2022-07-29T11:43:58;57634.44;;;-135.08
66027;BMP280;56312;55.976;37.136;2022-07-29T11:49:05;57634.44;;;-135.08
66027;BMP280;56312;55.976;37.136;2022-07-29T11:54:12;57634.44;;;-135.08
66027;BMP280;56312;55.976;37.136;2022-07-29T11:59:27;57634.44;;;-135.08
66027;BMP280;56312;55.976;37.136;2022-07-29T12:04:48;57634.44;;;-135.08
66027;BMP280;56312;55.976;37.136;2022-07-29T12:10:01;57634.44;;;-135.08
66027;BMP280;56312;55.976;37.136;2022-07-29T12:15:15;57634.44;;;-135.08
66027;BMP280;56312;55.976;37.136;2022-07-29T12:20:27;57634.44;;;-135.08
66027;BMP280;56312;55.976;37.136;2022-07-29T12:25:35;57634.44;;;-135.08
66027;BMP280;56312;55.976;37.136;2022-07-29T12:30:45;57634.44;;;-135.08
66027;BMP280;56312;55.976;37.136;2022-07-29T12:35:57;57634.44;;;-135.08
66027;BMP280;56312;55.976;37.136;2022-07-29T12:41:06;57634.44;;;-135.08
66027;BMP280;56312;55.976;37.136;2022-07-29T12:46:13;57634.44;;;-135.08
66027;BMP280;56312;55.976;37.136;2022-07-29T12:51:31;57634.44;;;-135.08
66027;BMP280;56312;55.976;37.136;2022-07-29T12:56:40;57634.44;;;-135.08
66027;BMP280;56312;55.976;37.136;2022-07-29T13:01:48;57634.44;;;-135.08
66027;BMP280;56312;55.976;37.136;2022-07-29T13:06:59;57634.44;;;-135.08
66027;BMP280;56312;55.976;37.136;2022-07-29T13:12:08;57634.44;;;-135.08
66027;BMP280;56312;55.976;37.136;2022-07-29T13:17:20;57634.44;;;-135.08
66027;BMP280;56312;55.976;37.136;2022-07-29T13:22:33;57634.44;;;-135.08
66027;BMP280;56312;55.976;37.136;2022-07-29T13:27:39;57634.44;;;-135.08
66027;BMP280;56312;55.976;37.136;2022-07-29T13:32:46;57634.44;;;-135.08
66027;BMP280;56312;55.976;37.136;2022-07-29T13:37:53;57634.44;;;-135.08
66027;BMP280;56312;55.976;37.136;2022-07-29T13:42:59;57634.44;;;-135.08
66027;BMP280;56312;55.976;37.136;2022-07-29T13:48:06;57634.44;;;-135.08
66027;BMP280;56312;55.976;37.136;2022-07-29T13:53:12;57634.44;;;-135.08
66027;BMP280;56312;55.976;37.136;2022-07-29T13:58:19;57634.44;;;-135.08
66027;BMP280;56312;55.976;37.136;2022-07-29T14:03:25;57634.44;;;-135.08
66027;BMP280;56312;55.976;37.136;2022-07-29T14:08:32;57634.44;;;-135.08
66027;BMP280;56312;55.976;37.136;2022-07-29T14:13:38;57634.44;;;-135.08
66027;BMP280;56312;55.976;37.136;2022-07-29T14:18:44;57634.44;;;-135.08
66027;BMP280;56312;55.976;37.136;2022-07-29T14:23:51;57634.44;;;-135.08
66027;BMP280;56312;55.976;37.136;2022-07-29T14:28:58;57634.44;;;-135.08
66027;BMP280;56312;55.976;37.136;2022-07-29T14:34:04;57634.44;;;-135.08
66027;BMP280;56312;55.976;37.136;2022-07-29T14:39:11;57634.44;;;-135.08
66027;BMP280;56312;55.976;37.136;2022-07-29T14:44:36;57634.44;;;-135.08
66027;BMP280;56312;55.976;37.136;2022-07-29T14:49:42;57634.44;;;-135.08
66027;BMP280;56312;55.976;37.136;2022-07-29T14:54:48;57634.44;;;-135.08
66027;BMP280;56312;55.976;37.136;2022-07-29T14:59:55;57634.44;;;-135.08
66027;BMP280;56312;55.976;37.136;2022-07-29T15:05:02;57634.44;;;-135.08
66027;BMP280;56312;55.976;37.136;2022-07-29T15:10:08;57634.44;;;-135.08
66027;BMP280;56312;55.976;37.136;2022-07-29T15:15:15;57634.44;;;-135.08
66027;BMP280;56312;55.976;37.136;2022-07-29T15:20:21;57634.44;;;-135.08
66027;BMP280;56312;55.976;37.136;2022-07-29T15:25:30;57634.44;;;-135.08
66027;BMP280;56312;55.976;37.136;2022-07-29T15:30:38;57634.44;;;-135.08
66027;BMP280;56312;55.976;37.136;2022-07-29T15:35:47;57634.44;;;-135.08
66027;BMP280;56312;55.976;37.136;2022-07-29T15:40:54;57634.44;;;-135.08
66027;BMP280;56312;55.976;37.136;2022-07-29T15:46:00;98982.38;;;22.49
66027;BMP280;56312;55.976;37.136;2022-07-29T15:51:25;98990.47;;;22.46
66027;BMP280;56312;55.976;37.136;2022-07-29T15:56:32;98987.84;;;22.46
66027;BMP280;56312;55.976;37.136;2022-07-29T16:01:38;98997.41;;;22.47
66027;BMP280;56312;55.976;37.136;2022-07-29T16:06:45;98998.91;;;22.49
66027;BMP280;56312;55.976;37.136;2022-07-29T16:11:52;99006.75;;;22.49
66027;BMP280;56312;55.976;37.136;2022-07-29T16:16:59;99010.47;;;22.47
66027;BMP280;56312;55.976;37.136;2022-07-29T16:22:08;99014.31;;;22.43
66027;BMP280;56312;55.976;37.136;2022-07-29T16:27:15;99010.97;;;22.41
66027;BMP280;56312;55.976;37.136;2022-07-29T16:32:21;99006.84;;;22.39
66027;BMP280;56312;55.976;37.136;2022-07-29T16:37:28;99013.72;;;22.40
66027;BMP280;56312;55.976;37.136;2022-07-29T16:42:43;99023.38;;;22.39
66027;BMP280;56312;55.976;37.136;2022-07-29T16:47:50;99023.22;;;22.41
66027;BMP280;56312;55.976;37.136;2022-07-29T16:52:59;99042.38;;;22.41
66027;BMP280;56312;55.976;37.136;2022-07-29T16:58:06;99037.38;;;22.38
66027;BMP280;56312;55.976;37.136;2022-07-29T17:03:12;99032.28;;;22.37
66027;BMP280;56312;55.976;37.136;2022-07-29T17:08:18;99036.84;;;22.35
66027;BMP280;56312;55.976;37.136;2022-07-29T17:13:24;99027.44;;;22.32
66027;BMP280;56312;55.976;37.136;2022-07-29T17:18:31;99036.25;;;22.31
66027;BMP280;56312;55.976;37.136;2022-07-29T17:23:37;99041.34;;;22.33
66027;BMP280;56312;55.976;37.136;2022-07-29T17:28:43;99034.31;;;22.33
66027;BMP280;56312;55.976;37.136;2022-07-29T17:34:08;99037.91;;;22.32
66027;BMP280;56312;55.976;37.136;2022-07-29T17:39:15;99042.41;;;22.30
66027;BMP280;56312;55.976;37.136;2022-07-29T17:44:21;99038.41;;;22.26
66027;BMP280;56312;55.976;37.136;2022-07-29T17:49:27;99036.97;;;22.22
66027;BMP280;56312;55.976;37.136;2022-07-29T17:54:34;57634.44;;;-135.08
66027;BMP280;56312;55.976;37.136;2022-07-29T17:59:40;57634.44;;;-135.08
66027;BMP280;56312;55.976;37.136;2022-07-29T18:04:47;57634.44;;;-135.08
66027;BMP280;56312;55.976;37.136;2022-07-29T18:09:53;57634.44;;;-135.08
66027;BMP280;56312;55.976;37.136;2022-07-29T18:15:18;57634.44;;;-135.08
66027;BMP280;56312;55.976;37.136;2022-07-29T18:20:25;57634.44;;;-135.08
66027;BMP280;56312;55.976;37.136;2022-07-29T18:25:31;57634.44;;;-135.08
66027;BMP280;56312;55.976;37.136;2022-07-29T18:30:38;57634.44;;;-135.08
66027;BMP280;56312;55.976;37.136;2022-07-29T18:35:45;57634.44;;;-135.08
66027;BMP280;56312;55.976;37.136;2022-07-29T18:40:52;99062.72;;;22.07
66027;BMP280;56312;55.976;37.136;2022-07-29T18:45:59;99061.91;;;22.06
66027;BMP280;56312;55.976;37.136;2022-07-29T18:51:05;99068.69;;;22.09
66027;BMP280;56312;55.976;37.136;2022-07-29T18:56:13;99063.31;;;22.10
66027;BMP280;56312;55.976;37.136;2022-07-29T19:01:19;99059.03;;;22.09
66027;BMP280;56312;55.976;37.136;2022-07-29T19:06:26;99070.47;;;22.08
66027;BMP280;56312;55.976;37.136;2022-07-29T19:11:33;99063.00;;;22.04
66027;BMP280;56312;55.976;37.136;2022-07-29T19:16:43;99056.31;;;22.00
66027;BMP280;56312;55.976;37.136;2022-07-29T19:21:49;99056.56;;;21.97
66027;BMP280;56312;55.976;37.136;2022-07-29T19:27:13;99067.00;;;21.97
66027;BMP280;56312;55.976;37.136;2022-07-29T19:32:20;99055.59;;;21.98
66027;BMP280;56312;55.976;37.136;2022-07-29T19:37:27;99066.78;;;22.00
66027;BMP280;56312;55.976;37.136;2022-07-29T19:42:33;99074.50;;;22.01
66027;BMP280;56312;55.976;37.136;2022-07-29T19:47:40;99079.00;;;21.99
66027;BMP280;56312;55.976;37.136;2022-07-29T19:52:46;99073.91;;;21.98
66027;BMP280;56312;55.976;37.136;2022-07-29T20:03:37;99079.88;;;21.89
66027;BMP280;56312;55.976;37.136;2022-07-29T20:08:44;99077.34;;;21.88
66027;BMP280;56312;55.976;37.136;2022-07-29T20:13:51;99080.81;;;21.88
66027;BMP280;56312;55.976;37.136;2022-07-29T20:18:57;99079.88;;;21.89
66027;BMP280;56312;55.976;37.136;2022-07-29T20:24:03;99082.22;;;21.92
66027;BMP280;56312;55.976;37.136;2022-07-29T20:29:10;99083.06;;;21.92
66027;BMP280;56312;55.976;37.136;2022-07-29T20:34:17;99093.63;;;21.91
66027;BMP280;56312;55.976;37.136;2022-07-29T20:39:23;99101.84;;;21.87
66027;BMP280;56312;55.976;37.136;2022-07-29T20:44:30;99096.03;;;21.83
66027;BMP280;56312;55.976;37.136;2022-07-29T20:49:36;99101.50;;;21.80
66027;BMP280;56312;55.976;37.136;2022-07-29T20:54:51;99107.59;;;21.81
66027;BMP280;56312;55.976;37.136;2022-07-29T20:59:58;99110.19;;;21.81
66027;BMP280;56312;55.976;37.136;2022-07-29T21:05:04;99117.91;;;21.82
66027;BMP280;56312;55.976;37.136;2022-07-29T21:10:11;99108.28;;;21.83
66027;BMP280;56312;55.976;37.136;2022-07-29T21:15:20;99123.13;;;21.82
66027;BMP280;56312;55.976;37.136;2022-07-29T21:20:27;99123.38;;;21.79
66027;BMP280;56312;55.976;37.136;2022-07-29T21:25:34;99123.59;;;21.76
66027;BMP280;56312;55.976;37.136;2022-07-29T21:30:41;99125.66;;;21.73
66027;BMP280;56312;55.976;37.136;2022-07-29T21:35:47;99132.63;;;21.72
66027;BMP280;56312;55.976;37.136;2022-07-29T21:40:54;99130.03;;;21.72
66027;BMP280;56312;55.976;37.136;2022-07-29T21:46:01;99131.56;;;21.75
66027;BMP280;56312;55.976;37.136;2022-07-29T21:51:08;99136.66;;;21.76
66027;BMP280;56312;55.976;37.136;2022-07-29T21:56:14;99147.13;;;21.76
66027;BMP280;56312;55.976;37.136;2022-07-29T22:01:20;99149.03;;;21.74
66027;BMP280;56312;55.976;37.136;2022-07-29T22:06:27;99154.50;;;21.71
66027;BMP280;56312;55.976;37.136;2022-07-29T22:11:33;99147.84;;;21.67
66027;BMP280;56312;55.976;37.136;2022-07-29T22:16:41;99145.47;;;21.65
66027;BMP280;56312;55.976;37.136;2022-07-29T22:21:48;99148.91;;;21.65
66027;BMP280;56312;55.976;37.136;2022-07-29T22:26:54;99146.19;;;21.66
66027;BMP280;56312;55.976;37.136;2022-07-29T22:32:00;99149.50;;;21.68
66027;BMP280;56312;55.976;37.136;2022-07-29T22:37:07;99156.41;;;21.69
66027;BMP280;56312;55.976;37.136;2022-07-29T22:42:13;99156.41;;;21.69
66027;BMP280;56312;55.976;37.136;2022-07-29T22:47:20;99170.69;;;21.66
66027;BMP280;56312;55.976;37.136;2022-07-29T22:52:26;99165.69;;;21.63
66027;BMP280;56312;55.976;37.136;2022-07-29T22:57:32;99175.41;;;21.61
66027;BMP280;56312;55.976;37.136;2022-07-29T23:02:39;99182.66;;;21.57
66027;BMP280;56312;55.976;37.136;2022-07-29T23:07:46;99179.94;;;21.59
66027;BMP280;56312;55.976;37.136;2022-07-29T23:12:52;99188.47;;;21.61
66027;BMP280;56312;55.976;37.136;2022-07-29T23:17:58;99185.75;;;21.62
66027;BMP280;56312;55.976;37.136;2022-07-29T23:23:05;99177.19;;;21.60
66027;BMP280;56312;55.976;37.136;2022-07-29T23:28:12;99182.41;;;21.60
66027;BMP280;56312;55.976;37.136;2022-07-29T23:33:18;99180.16;;;21.56
66027;BMP280;56312;55.976;37.136;2022-07-29T23:38:25;99172.56;;;21.53
66027;BMP280;56312;55.976;37.136;2022-07-29T23:43:32;99177.06;;;21.51
66027;BMP280;56312;55.976;37.136;2022-07-29T23:48:38;99179.69;;;21.51
66027;BMP280;56312;55.976;37.136;2022-07-29T23:53:44;99176.13;;;21.52
